createdAt,value
2017-06-28T00:00:45.937Z,14.50
2017-06-28T00:03:13.453Z,14.30
2017-06-28T00:05:40.936Z,13.30
2017-06-28T00:08:08.431Z,14.20
2017-06-28T00:10:35.965Z,13.07
2017-06-28T00:13:03.496Z,14.17
2017-06-28T00:15:31.044Z,16.90
2017-06-28T00:17:58.565Z,14.17
2017-06-28T00:20:26.848Z,15.17
2017-06-28T00:22:54.332Z,15.57
2017-06-28T00:25:21.932Z,14.10
2017-06-28T00:27:49.476Z,14.60
2017-06-28T00:30:17.020Z,14.97
2017-06-28T00:32:44.764Z,15.27
2017-06-28T00:35:12.312Z,16.03
2017-06-28T00:37:39.808Z,15.17
2017-06-28T00:40:07.375Z,13.90
2017-06-28T00:42:35.643Z,14.60
2017-06-28T00:45:03.932Z,16.67
2017-06-28T00:47:31.488Z,16.30
2017-06-28T00:49:59.016Z,15.33
2017-06-28T00:52:26.499Z,17.93
2017-06-28T00:54:54.196Z,16.60
2017-06-28T00:57:21.739Z,16.83
2017-06-28T00:59:49.276Z,16.43
2017-06-28T01:02:17.544Z,16.40
2017-06-28T01:04:45.023Z,16.30
2017-06-28T01:07:12.524Z,16.60
2017-06-28T01:09:40.277Z,16.57
2017-06-28T01:12:07.783Z,16.50
2017-06-28T01:14:35.280Z,16.90
2017-06-28T01:17:02.953Z,18.10
2017-06-28T01:19:30.451Z,17.10
2017-06-28T01:21:57.994Z,16.80
2017-06-28T01:24:25.508Z,17.33
2017-06-28T01:26:53.085Z,19.13
2017-06-28T01:29:20.598Z,18.57
2017-06-28T01:31:48.098Z,18.07
2017-06-28T01:34:15.609Z,19.43
2017-06-28T01:36:43.153Z,19.00
2017-06-28T01:39:10.696Z,18.47
2017-06-28T01:41:38.192Z,18.50
2017-06-28T01:44:05.684Z,19.43
2017-06-28T01:46:33.199Z,18.77
2017-06-28T01:49:00.769Z,19.90
2017-06-28T01:51:28.290Z,18.83
2017-06-28T01:53:56.573Z,18.37
2017-06-28T01:56:24.111Z,21.87
2017-06-28T01:58:51.661Z,19.33
2017-06-28T02:01:19.144Z,20.40
2017-06-28T02:03:46.641Z,20.43
2017-06-28T02:06:14.188Z,20.60
2017-06-28T02:08:41.668Z,20.57
2017-06-28T02:11:09.157Z,21.80
2017-06-28T02:13:36.689Z,20.27
2017-06-28T02:16:04.954Z,21.30
2017-06-28T02:18:33.237Z,19.47
2017-06-28T02:21:00.784Z,20.70
2017-06-28T02:23:28.269Z,21.97
2017-06-28T02:25:55.764Z,20.90
2017-06-28T02:28:23.306Z,21.67
2017-06-28T02:30:50.848Z,21.90
2017-06-28T02:33:18.392Z,22.30
2017-06-28T02:35:45.880Z,21.47
2017-06-28T02:38:13.397Z,21.33
2017-06-28T02:40:40.930Z,22.40
2017-06-28T02:43:08.420Z,23.40
2017-06-28T02:45:35.965Z,22.80
2017-06-28T02:48:03.456Z,23.20
2017-06-28T02:50:30.935Z,20.90
2017-06-28T02:52:58.633Z,23.10
2017-06-28T02:55:26.185Z,22.17
2017-06-28T02:57:53.684Z,23.40
2017-06-28T03:00:21.164Z,22.73
2017-06-28T03:02:48.639Z,23.07
2017-06-28T03:05:16.164Z,22.97
2017-06-28T03:07:43.640Z,23.40
2017-06-28T03:10:11.148Z,21.90
2017-06-28T03:12:38.888Z,22.23
2017-06-28T03:15:06.382Z,22.77
2017-06-28T03:17:33.889Z,22.50
2017-06-28T03:20:01.416Z,22.03
2017-06-28T03:22:28.963Z,23.57
2017-06-28T03:24:56.444Z,22.50
2017-06-28T03:27:24.144Z,23.27
2017-06-28T03:29:51.692Z,20.87
2017-06-28T03:32:19.168Z,21.70
2017-06-28T03:34:46.864Z,20.90
2017-06-28T03:37:15.140Z,22.30
2017-06-28T03:39:42.620Z,21.00
2017-06-28T03:42:10.120Z,20.03
2017-06-28T03:44:37.600Z,21.97
2017-06-28T03:47:05.317Z,21.00
2017-06-28T03:49:32.805Z,22.53
2017-06-28T03:52:00.288Z,21.67
2017-06-28T03:54:28.765Z,22.10
2017-06-28T03:56:56.240Z,20.50
2017-06-28T03:59:23.775Z,22.83
2017-06-28T04:01:51.492Z,20.20
2017-06-28T04:04:19.037Z,21.60
2017-06-28T04:06:46.613Z,22.10
2017-06-28T04:09:14.225Z,21.30
2017-06-28T04:11:41.768Z,20.57
2017-06-28T04:14:09.261Z,21.10
2017-06-28T04:16:36.780Z,19.50
2017-06-28T04:19:04.282Z,21.43
2017-06-28T04:21:32.633Z,20.07
2017-06-28T04:24:00.152Z,20.53
2017-06-28T04:26:27.644Z,19.90
2017-06-28T04:28:55.190Z,21.00
2017-06-28T04:31:22.937Z,20.80
2017-06-28T04:33:50.480Z,20.23
2017-06-28T04:36:18.030Z,20.37
2017-06-28T04:38:45.772Z,21.13
2017-06-28T04:41:13.318Z,19.73
2017-06-28T04:43:40.880Z,20.13
2017-06-28T04:46:08.405Z,20.67
2017-06-28T04:48:35.958Z,19.07
2017-06-28T04:51:03.498Z,18.10
2017-06-28T04:53:30.975Z,18.20
2017-06-28T04:55:58.448Z,19.73
2017-06-28T04:58:26.017Z,18.43
2017-06-28T05:00:53.568Z,18.70
2017-06-28T05:03:21.053Z,19.93
2017-06-28T05:05:48.532Z,19.30
2017-06-28T05:08:16.895Z,18.97
2017-06-28T05:10:45.144Z,18.20
2017-06-28T05:13:12.632Z,18.83
2017-06-28T05:15:40.163Z,19.43
2017-06-28T05:18:07.668Z,18.40
2017-06-28T05:20:35.152Z,19.13
2017-06-28T05:23:02.684Z,19.37
2017-06-28T05:25:30.224Z,18.17
2017-06-28T05:27:57.773Z,19.03
2017-06-28T05:30:25.287Z,18.90
2017-06-28T05:32:53.540Z,18.90
2017-06-28T05:35:21.016Z,19.30
2017-06-28T05:37:48.555Z,19.70
2017-06-28T05:40:16.032Z,18.10
2017-06-28T05:42:43.745Z,19.53
2017-06-28T05:45:11.232Z,18.83
2017-06-28T05:47:38.727Z,19.17
2017-06-28T05:50:06.481Z,19.57
2017-06-28T05:52:33.981Z,19.43
2017-06-28T05:55:01.464Z,20.50
2017-06-28T05:57:28.985Z,18.80
2017-06-28T05:59:57.231Z,21.40
2017-06-28T06:02:24.811Z,21.00
2017-06-28T06:04:52.356Z,19.57
2017-06-28T06:07:19.900Z,20.00
2017-06-28T06:09:47.440Z,19.17
2017-06-28T06:12:14.984Z,19.63
2017-06-28T06:14:42.529Z,18.57
2017-06-28T06:17:10.058Z,18.07
2017-06-28T06:19:38.330Z,18.10
2017-06-28T06:22:05.883Z,17.50
2017-06-28T06:24:33.437Z,16.50
2017-06-28T06:27:00.960Z,18.03
2017-06-28T06:29:28.505Z,18.17
2017-06-28T06:31:56.048Z,19.43
2017-06-28T06:34:23.588Z,20.07
2017-06-28T06:36:51.140Z,20.30
2017-06-28T06:39:18.681Z,20.70
2017-06-28T06:41:46.220Z,19.70
2017-06-28T06:44:13.766Z,19.73
2017-06-28T06:46:41.284Z,21.33
2017-06-28T06:49:09.529Z,22.17
2017-06-28T06:51:37.033Z,20.33
2017-06-28T06:54:04.533Z,20.53
2017-06-28T06:56:32.812Z,18.87
2017-06-28T06:59:00.359Z,19.57
2017-06-28T07:01:27.839Z,20.30
2017-06-28T07:03:55.352Z,19.10
2017-06-28T07:06:22.884Z,17.43
2017-06-28T07:08:50.365Z,19.87
2017-06-28T07:11:17.897Z,17.90
2017-06-28T07:13:45.372Z,18.93
2017-06-28T07:16:12.956Z,18.67
2017-06-28T07:18:40.451Z,19.90
2017-06-28T07:21:07.948Z,19.70
2017-06-28T07:23:35.487Z,19.70
2017-06-28T07:26:03.452Z,17.90
2017-06-28T07:28:30.933Z,17.20
2017-06-28T07:30:58.422Z,18.30
2017-06-28T07:33:25.936Z,17.43
2017-06-28T07:35:53.416Z,16.03
2017-06-28T07:38:20.952Z,14.77
2017-06-28T07:40:48.497Z,15.43
2017-06-28T07:43:15.976Z,15.07
2017-06-28T07:45:43.465Z,14.93
2017-06-28T07:48:11.712Z,15.40
2017-06-28T07:50:39.212Z,13.10
2017-06-28T07:53:06.712Z,13.97
2017-06-28T07:55:34.992Z,13.60
2017-06-28T07:58:02.496Z,12.50
2017-06-28T08:00:30.063Z,13.80
2017-06-28T08:02:58.307Z,11.90
2017-06-28T08:05:26.559Z,12.27
2017-06-28T08:07:54.141Z,12.57
2017-06-28T08:10:21.672Z,12.60
2017-06-28T08:12:50.039Z,14.07
2017-06-28T08:15:17.580Z,13.13
2017-06-28T08:17:45.056Z,14.23
2017-06-28T08:20:12.548Z,14.00
2017-06-28T08:22:40.809Z,13.30
2017-06-28T08:25:09.321Z,14.27
2017-06-28T08:27:36.804Z,13.90
2017-06-28T08:30:04.307Z,14.57
2017-06-28T08:32:31.829Z,12.20
2017-06-28T08:34:59.476Z,14.53
2017-06-28T08:37:26.964Z,11.90
2017-06-28T08:39:54.440Z,12.43
2017-06-28T08:42:22.700Z,12.50
2017-06-28T08:44:50.972Z,13.30
2017-06-28T08:47:18.516Z,11.30
2017-06-28T08:49:46.059Z,11.47
2017-06-28T08:52:13.605Z,11.60
2017-06-28T08:54:41.151Z,11.50
2017-06-28T08:57:08.646Z,11.17
2017-06-28T08:59:36.145Z,11.93
2017-06-28T09:02:03.671Z,11.03
2017-06-28T09:04:31.949Z,11.50
2017-06-28T09:06:59.431Z,11.40
2017-06-28T09:09:26.922Z,11.60
2017-06-28T09:11:54.464Z,12.27
2017-06-28T09:14:22.005Z,11.30
2017-06-28T09:16:49.552Z,11.47
2017-06-28T09:19:17.028Z,11.00
2017-06-28T09:21:44.560Z,11.37
2017-06-28T09:24:12.076Z,10.63
2017-06-28T09:26:39.637Z,10.87
2017-06-28T09:29:07.279Z,10.20
2017-06-28T09:31:34.768Z,11.00
2017-06-28T09:34:02.357Z,10.87
2017-06-28T09:36:29.895Z,10.93
2017-06-28T09:38:57.440Z,11.27
2017-06-28T09:41:24.985Z,11.00
2017-06-28T09:43:52.500Z,11.07
2017-06-28T09:46:20.078Z,10.67
2017-06-28T09:48:47.612Z,8.70
2017-06-28T09:51:15.104Z,9.57
2017-06-28T09:53:42.580Z,9.70
2017-06-28T09:56:10.860Z,8.57
2017-06-28T09:58:38.344Z,8.70
2017-06-28T10:01:05.844Z,8.60
2017-06-28T10:03:33.417Z,8.20
2017-06-28T10:06:00.931Z,8.27
2017-06-28T10:08:28.485Z,8.60
2017-06-28T10:10:56.225Z,8.17
2017-06-28T10:13:23.773Z,8.87
2017-06-28T10:15:51.244Z,8.27
2017-06-28T10:18:18.749Z,8.50
2017-06-28T10:20:46.312Z,8.80
2017-06-28T10:23:13.837Z,8.87
2017-06-28T10:25:41.325Z,8.67
2017-06-28T10:28:08.850Z,9.40
2017-06-28T10:30:36.341Z,10.10
2017-06-28T10:33:03.821Z,8.47
2017-06-28T10:35:31.352Z,9.20
2017-06-28T10:37:58.833Z,10.00
2017-06-28T10:40:26.346Z,10.60
2017-06-28T10:42:53.870Z,10.33
2017-06-28T10:45:22.147Z,10.43
2017-06-28T10:47:49.680Z,10.53
2017-06-28T10:50:17.260Z,10.77
2017-06-28T10:52:44.771Z,11.20
2017-06-28T10:55:12.316Z,11.73
2017-06-28T10:57:39.847Z,11.87
2017-06-28T11:00:08.120Z,10.67
2017-06-28T11:02:35.627Z,10.57
2017-06-28T11:05:03.182Z,10.10
2017-06-28T11:07:31.428Z,10.20
2017-06-28T11:09:58.916Z,10.77
2017-06-28T11:12:26.457Z,9.17
2017-06-28T11:14:53.990Z,10.10
2017-06-28T11:17:21.472Z,11.27
2017-06-28T11:19:48.995Z,10.23
2017-06-28T11:22:16.538Z,11.20
2017-06-28T11:24:44.021Z,10.60
2017-06-28T11:27:11.707Z,10.97
2017-06-28T11:29:39.190Z,10.60
2017-06-28T11:32:06.676Z,11.40
2017-06-28T11:34:35.121Z,10.30
2017-06-28T11:37:02.862Z,10.30
2017-06-28T11:39:30.351Z,11.00
2017-06-28T11:41:57.895Z,9.97
2017-06-28T11:44:25.436Z,9.90
2017-06-28T11:46:52.976Z,9.43
2017-06-28T11:49:20.521Z,9.57
2017-06-28T11:51:48.093Z,9.67
2017-06-28T11:54:15.578Z,9.07
2017-06-28T11:56:43.077Z,8.57
2017-06-28T11:59:10.597Z,8.53
2017-06-28T12:01:38.131Z,7.40
2017-06-28T12:04:05.613Z,7.17
2017-06-28T12:06:33.129Z,8.20
2017-06-28T12:09:00.664Z,7.50
2017-06-28T12:11:28.209Z,7.90
2017-06-28T12:13:55.857Z,8.27
2017-06-28T12:16:23.335Z,8.67
2017-06-28T12:18:50.940Z,9.10
2017-06-28T12:21:18.428Z,8.70
2017-06-28T12:23:45.923Z,8.83
2017-06-28T12:26:13.463Z,9.90
2017-06-28T12:28:40.947Z,10.43
2017-06-28T12:31:08.770Z,10.70
2017-06-28T12:33:36.268Z,10.60
2017-06-28T12:36:04.770Z,12.13
2017-06-28T12:38:32.298Z,11.60
2017-06-28T12:41:00.579Z,11.70
2017-06-28T12:43:28.056Z,11.70
2017-06-28T12:45:55.560Z,11.10
2017-06-28T12:48:23.257Z,12.60
2017-06-28T12:50:50.849Z,13.73
2017-06-28T12:53:18.397Z,13.07
2017-06-28T12:55:45.937Z,13.73
2017-06-28T12:58:13.479Z,14.97
2017-06-28T13:00:41.033Z,14.40
2017-06-28T13:03:08.524Z,15.10
2017-06-28T13:05:36.043Z,15.37
2017-06-28T13:08:03.572Z,15.37
2017-06-28T13:10:31.053Z,13.93
2017-06-28T13:12:58.740Z,13.13
2017-06-28T13:15:26.290Z,11.97
2017-06-28T13:17:53.828Z,11.07
2017-06-28T13:20:21.320Z,10.77
2017-06-28T13:22:48.802Z,10.30
2017-06-28T13:25:17.275Z,10.20
2017-06-28T13:27:44.752Z,10.20
2017-06-28T13:30:12.262Z,11.33
2017-06-28T13:32:39.787Z,10.37
2017-06-28T13:35:08.094Z,9.23
2017-06-28T13:37:35.577Z,9.73
2017-06-28T13:40:03.081Z,9.00
2017-06-28T13:42:30.622Z,8.80
2017-06-28T13:44:58.137Z,8.33
2017-06-28T13:47:25.676Z,8.80
2017-06-28T13:49:53.192Z,7.23
2017-06-28T13:52:20.660Z,8.17
2017-06-28T13:54:48.136Z,7.90
2017-06-28T13:57:15.745Z,8.10
2017-06-28T13:59:44.009Z,7.90
2017-06-28T14:02:11.484Z,7.50
2017-06-28T14:04:39.100Z,8.10
2017-06-28T14:07:06.749Z,7.70
2017-06-28T14:09:34.241Z,7.10
2017-06-28T14:12:01.938Z,7.00
2017-06-28T14:14:29.477Z,6.50
2017-06-28T14:16:56.948Z,6.80
2017-06-28T14:19:24.669Z,6.57
2017-06-28T14:21:52.208Z,7.30
2017-06-28T14:24:19.748Z,6.83
2017-06-28T14:26:48.112Z,7.20
2017-06-28T14:29:16.352Z,7.00
2017-06-28T14:31:44.589Z,8.13
2017-06-28T14:34:12.176Z,8.30
2017-06-28T14:36:39.657Z,7.97
2017-06-28T14:39:08.115Z,9.23
2017-06-28T14:41:35.836Z,8.57
2017-06-28T14:44:03.321Z,9.77
2017-06-28T14:46:30.824Z,4.40
2017-06-28T14:48:58.328Z,4.17
2017-06-28T14:51:26.619Z,3.20
2017-06-28T14:53:54.093Z,4.10
2017-06-28T14:56:21.609Z,4.37
2017-06-28T14:58:49.149Z,4.53
2017-06-28T15:01:16.688Z,5.70
2017-06-28T15:03:44.959Z,6.30
2017-06-28T15:06:12.501Z,5.67
2017-06-28T15:08:40.062Z,6.20
2017-06-28T15:11:07.550Z,7.10
2017-06-28T15:13:35.035Z,6.40
2017-06-28T15:16:02.581Z,5.83
2017-06-28T15:18:30.065Z,5.87
2017-06-28T15:20:57.536Z,6.33
2017-06-28T15:23:25.816Z,6.10
2017-06-28T15:25:53.292Z,6.80
2017-06-28T15:28:20.795Z,6.73
2017-06-28T15:30:48.269Z,7.07
2017-06-28T15:33:15.783Z,7.07
2017-06-28T15:35:43.330Z,9.00
2017-06-28T15:38:10.815Z,8.60
2017-06-28T15:40:38.308Z,9.37
2017-06-28T15:43:05.862Z,9.27
2017-06-28T15:45:33.393Z,11.67
2017-06-28T15:48:00.881Z,11.10
2017-06-28T15:50:28.525Z,11.53
2017-06-28T15:52:56.046Z,11.23
2017-06-28T15:55:23.576Z,10.00
2017-06-28T15:57:51.097Z,10.17
2017-06-28T16:00:19.376Z,8.50
2017-06-28T16:02:46.916Z,9.83
2017-06-28T16:05:14.400Z,8.67
2017-06-28T16:07:41.908Z,8.43
2017-06-28T16:10:09.462Z,8.17
2017-06-28T16:12:36.977Z,8.30
2017-06-28T16:15:05.260Z,7.13
2017-06-28T16:23:33.725Z,7.00
2017-06-28T16:26:01.197Z,6.10
2017-06-28T16:28:28.705Z,6.43
2017-06-28T16:30:56.244Z,7.50
2017-06-28T16:33:23.793Z,7.73
2017-06-28T16:35:51.338Z,7.90
2017-06-28T16:38:18.841Z,7.23
2017-06-28T16:40:46.425Z,8.20
2017-06-28T16:43:13.968Z,8.90
2017-06-28T16:45:41.468Z,10.10
2017-06-28T16:48:09.066Z,9.90
2017-06-28T16:50:36.624Z,10.00
2017-06-28T16:53:04.131Z,10.90
2017-06-28T16:55:31.638Z,10.50
2017-06-28T16:57:59.224Z,11.13
2017-06-28T17:00:26.705Z,11.43
2017-06-28T17:02:54.221Z,11.70
2017-06-28T17:05:21.757Z,11.40
2017-06-28T17:07:49.296Z,11.10
2017-06-28T17:10:17.313Z,11.17
2017-06-28T17:12:44.955Z,13.03
2017-06-28T17:15:12.452Z,11.90
2017-06-28T17:17:40.008Z,12.70
2017-06-28T17:20:07.529Z,13.10
2017-06-28T17:22:35.061Z,13.60
2017-06-28T17:25:02.733Z,14.30
2017-06-28T17:27:30.228Z,15.20
2017-06-28T17:29:57.793Z,14.90
2017-06-28T17:32:26.068Z,15.03
2017-06-28T17:34:53.576Z,15.67
2017-06-28T17:37:21.869Z,15.77
2017-06-28T17:39:49.411Z,15.57
2017-06-28T17:42:16.888Z,15.50
2017-06-28T17:44:44.396Z,15.53
2017-06-28T17:47:11.936Z,16.90
2017-06-28T17:49:39.419Z,17.07
2017-06-28T17:52:07.009Z,15.77
2017-06-28T17:54:34.545Z,17.57
2017-06-28T17:57:02.825Z,16.10
2017-06-28T17:59:30.571Z,17.40
2017-06-28T18:01:58.819Z,18.03
2017-06-28T18:04:27.323Z,17.80
2017-06-28T18:06:54.936Z,17.80
2017-06-28T18:09:23.318Z,17.80
2017-06-28T18:11:50.799Z,19.37
2017-06-28T18:14:18.276Z,18.57
2017-06-28T18:16:46.568Z,18.87
2017-06-28T18:19:14.069Z,20.90
2017-06-28T18:21:41.554Z,18.20
2017-06-28T18:24:09.953Z,21.13
2017-06-28T18:26:37.456Z,20.50
2017-06-28T18:29:04.960Z,20.27
2017-06-28T18:31:32.652Z,18.73
2017-06-28T18:34:01.288Z,18.60
2017-06-28T18:36:29.583Z,19.73
2017-06-28T18:38:57.108Z,19.03
2017-06-28T18:41:24.661Z,21.33
2017-06-28T18:43:52.403Z,24.30
2017-06-28T18:46:19.884Z,21.63
2017-06-28T18:48:47.384Z,21.27
2017-06-28T18:51:15.144Z,22.30
2017-06-28T18:53:42.620Z,22.20
2017-06-28T18:56:10.109Z,22.57
2017-06-28T18:58:37.623Z,23.07
2017-06-28T19:01:05.111Z,22.73
2017-06-28T19:03:32.744Z,23.67
2017-06-28T19:06:00.248Z,26.07
2017-06-28T19:08:27.729Z,23.50
2017-06-28T19:10:55.977Z,22.53
2017-06-28T19:13:24.248Z,25.30
2017-06-28T19:15:52.512Z,24.90
2017-06-28T19:18:20.882Z,25.87
2017-06-28T19:20:48.421Z,25.07
2017-06-28T19:23:15.912Z,27.73
2017-06-28T19:25:43.624Z,26.00
2017-06-28T19:28:11.108Z,27.33
2017-06-28T19:30:38.672Z,27.60
2017-06-28T19:33:06.754Z,26.23
2017-06-28T19:35:34.267Z,27.53
2017-06-28T19:38:02.683Z,27.60
2017-06-28T19:40:30.425Z,27.77
2017-06-28T19:42:57.952Z,29.43
2017-06-28T19:45:25.493Z,28.13
2017-06-28T19:47:53.041Z,29.27
2017-06-28T19:50:20.528Z,29.30
2017-06-28T19:52:48.016Z,31.90
2017-06-28T19:55:15.501Z,31.10
2017-06-28T19:57:43.025Z,28.50
2017-06-28T20:00:10.549Z,31.60
2017-06-28T20:02:38.057Z,31.57
2017-06-28T20:05:05.561Z,30.67
2017-06-28T20:07:33.326Z,34.83
2017-06-28T20:10:00.880Z,34.50
2017-06-28T20:12:28.468Z,31.67
2017-06-28T20:14:56.221Z,34.07
2017-06-28T20:17:23.765Z,30.47
2017-06-28T20:19:51.308Z,33.57
2017-06-28T20:22:19.052Z,30.53
2017-06-28T20:24:46.534Z,30.70
2017-06-28T20:27:14.041Z,32.23
2017-06-28T20:29:41.561Z,29.07
2017-06-28T20:32:09.817Z,31.37
2017-06-28T20:34:37.300Z,33.67
2017-06-28T20:37:04.831Z,34.57
2017-06-28T20:39:32.361Z,32.63
2017-06-28T20:42:00.801Z,31.80
2017-06-28T20:44:28.588Z,33.27
2017-06-28T20:46:56.073Z,31.07
2017-06-28T20:49:23.572Z,32.57
2017-06-28T20:51:51.139Z,30.67
2017-06-28T20:54:18.620Z,32.97
2017-06-28T20:56:46.203Z,33.67
2017-06-28T20:59:13.749Z,30.77
2017-06-28T21:01:41.244Z,32.80
2017-06-28T21:04:08.797Z,29.30
2017-06-28T21:06:36.293Z,32.27
2017-06-28T21:09:03.804Z,32.60
2017-06-28T21:11:31.363Z,36.93
2017-06-28T21:13:58.904Z,33.20
2017-06-28T21:16:26.387Z,32.40
2017-06-28T21:18:53.885Z,37.83
2017-06-28T21:21:21.430Z,34.10
2017-06-28T21:23:48.944Z,32.97
2017-06-28T21:26:16.430Z,35.37
2017-06-28T21:28:43.965Z,36.37
2017-06-28T21:31:11.501Z,33.33
2017-06-28T21:33:39.019Z,33.73
2017-06-28T21:36:07.285Z,39.27
2017-06-28T21:38:35.632Z,33.47
2017-06-28T21:41:03.175Z,38.80
2017-06-28T21:43:30.756Z,38.67
2017-06-28T21:45:58.299Z,38.07
2017-06-28T21:48:25.780Z,39.27
2017-06-28T21:50:53.384Z,39.13
2017-06-28T21:53:20.932Z,38.63
2017-06-28T21:55:48.473Z,39.13
2017-06-28T21:58:16.020Z,41.87
2017-06-28T22:00:43.558Z,37.90
2017-06-28T22:03:11.204Z,38.00
2017-06-28T22:05:38.961Z,38.50
2017-06-28T22:08:06.462Z,33.10
2017-06-28T22:10:33.963Z,35.20
2017-06-28T22:13:01.585Z,36.80
2017-06-28T22:15:29.131Z,35.57
2017-06-28T22:17:56.676Z,34.63
2017-06-28T22:20:36.084Z,35.83
2017-06-28T22:23:03.648Z,33.97
2017-06-28T22:25:31.181Z,34.87
2017-06-28T22:27:58.724Z,33.63
2017-06-28T22:30:26.208Z,37.37
2017-06-28T22:32:53.808Z,37.47
2017-06-28T22:35:21.352Z,34.40
2017-06-28T22:37:48.897Z,33.37
2017-06-28T22:40:16.436Z,35.20
2017-06-28T22:42:43.980Z,31.83
2017-06-28T22:45:11.748Z,31.97
2017-06-28T22:47:39.254Z,32.80
2017-06-28T22:50:07.532Z,36.97
2017-06-28T22:52:35.041Z,33.80
2017-06-28T22:55:02.745Z,36.23
2017-06-28T22:57:30.471Z,33.40
2017-06-28T22:59:58.019Z,36.87
2017-06-28T23:02:25.507Z,37.00
2017-06-28T23:04:53.208Z,34.33
2017-06-28T23:07:20.751Z,33.33
2017-06-28T23:09:48.292Z,38.70
2017-06-28T23:12:15.813Z,40.40
2017-06-28T23:14:44.092Z,41.27
2017-06-28T23:17:11.740Z,39.57
2017-06-28T23:19:39.368Z,39.20
2017-06-28T23:22:06.881Z,39.40
2017-06-28T23:24:34.397Z,34.43
2017-06-28T23:27:02.120Z,36.43
2017-06-28T23:29:29.664Z,35.50
2017-06-28T23:31:57.152Z,39.43
2017-06-28T23:34:24.653Z,38.27
2017-06-28T23:36:52.323Z,41.10
2017-06-28T23:39:19.813Z,34.43
2017-06-28T23:41:48.096Z,35.20
2017-06-28T23:44:15.640Z,36.90
2017-06-28T23:46:43.187Z,38.20
2017-06-28T23:49:10.732Z,37.43
2017-06-28T23:51:38.269Z,39.90
2017-06-28T23:54:05.780Z,38.33
2017-06-28T23:56:34.092Z,37.43
2017-06-28T23:59:01.584Z,37.00
